Time;durP1;ratioP1;P1;durP2;ratioP2;P2;SDS_P1;SDS_P2;PMS_P1;PMS_P2;Temp;Humidity;BMP_temperature;BMP_pressure;BME280_temperature;BME280_humidity;BME280_pressure;Samples;Min_cycle;Max_cycle;Signal;HPM_P1;HPM_P2
2023/05/12 00:01:10;;;;;;;0.13;0.13;;;11.30;99.90;;;;;;4916660;29;20051;-81
2023/05/12 00:03:36;;;;;;;0.20;0.20;;;11.30;99.90;;;;;;4915455;29;20107;-81
2023/05/12 00:06:11;;;;;;;0.20;0.20;;;11.30;99.90;;;;;;4914223;29;20052;-81
2023/05/12 00:08:37;;;;;;;0.20;0.20;;;11.40;99.90;;;;;;4915222;29;20047;-81
2023/05/12 00:11:02;;;;;;;0.10;0.10;;;11.40;99.90;;;;;;4920703;23;20059;-81
2023/05/12 00:13:28;;;;;;;0.10;0.10;;;11.60;99.90;;;;;;4931929;29;20052;-81
2023/05/12 00:15:55;;;;;;;0.20;0.20;;;11.40;99.90;;;;;;4930930;29;20043;-81
2023/05/12 00:18:21;;;;;;;0.20;0.20;;;11.40;99.90;;;;;;4930501;29;20122;-81
2023/05/12 00:20:50;;;;;;;0.10;0.10;;;11.40;99.90;;;;;;4931781;29;20428;-81
2023/05/12 00:23:16;;;;;;;0.10;0.10;;;11.40;99.90;;;;;;4911496;29;20055;-81
2023/05/12 00:25:41;;;;;;;0.10;0.10;;;11.40;99.90;;;;;;4915411;29;20048;-81
2023/05/12 00:28:07;;;;;;;0.17;0.17;;;11.30;99.90;;;;;;4932234;29;20491;-81
2023/05/12 00:30:33;;;;;;;0.20;0.20;;;11.40;99.90;;;;;;4909451;29;20051;-81
2023/05/12 00:32:58;;;;;;;0.20;0.20;;;11.40;99.90;;;;;;4924213;29;20040;-81
2023/05/12 00:35:24;;;;;;;0.13;0.13;;;11.40;99.90;;;;;;4914034;29;20047;-80
2023/05/12 00:37:50;;;;;;;0.10;0.10;;;11.40;99.90;;;;;;4913652;29;20051;-81
2023/05/12 00:40:15;;;;;;;0.10;0.10;;;11.50;99.90;;;;;;4913891;29;20043;-81
2023/05/12 00:42:42;;;;;;;0.20;0.20;;;11.40;99.90;;;;;;4915573;29;20386;-81
2023/05/12 00:45:08;;;;;;;0.10;0.10;;;11.50;99.90;;;;;;4912441;29;20052;-81
2023/05/12 00:47:34;;;;;;;0.20;0.20;;;11.50;99.90;;;;;;4914769;29;20480;-81
2023/05/12 00:50:01;;;;;;;0.10;0.10;;;11.50;99.90;;;;;;4931703;29;20048;-81
2023/05/12 00:52:26;;;;;;;0.10;0.10;;;11.60;99.90;;;;;;4931770;29;20102;-80
2023/05/12 00:54:52;;;;;;;0.10;0.10;;;11.40;99.90;;;;;;4915226;29;20488;-80
2023/05/12 00:57:19;;;;;;;0.20;0.20;;;11.50;99.90;;;;;;4914951;29;20078;-80
2023/05/12 00:59:45;;;;;;;0.15;0.15;;;11.60;99.90;;;;;;4929845;29;20131;-81
2023/05/12 01:02:10;;;;;;;0.10;0.10;;;11.60;99.90;;;;;;4931007;29;20131;-81
2023/05/12 01:04:38;;;;;;;0.10;0.10;;;11.60;99.90;;;;;;4933639;29;20042;-80
2023/05/12 01:07:08;;;;;;;0.20;0.20;;;11.60;99.90;;;;;;4913239;29;20040;-81
2023/05/12 01:09:35;;;;;;;0.10;0.10;;;11.80;99.90;;;;;;4908820;29;20056;-81
2023/05/12 01:12:01;;;;;;;0.20;0.20;;;11.60;99.90;;;;;;4920240;29;20052;-81
2023/05/12 01:14:26;;;;;;;0.20;0.20;;;11.60;99.90;;;;;;4926094;29;20039;-81
2023/05/12 01:16:58;;;;;;;0.15;0.15;;;11.70;99.90;;;;;;4928599;29;20107;-81
2023/05/12 01:19:48;;;;;;;0.10;0.10;;;11.70;99.90;;;;;;4913640;29;20114;-80
2023/05/12 01:22:15;;;;;;;0.10;0.10;;;11.70;99.90;;;;;;4913790;29;20054;-81
2023/05/12 01:24:49;;;;;;;0.10;0.10;;;11.60;99.90;;;;;;4929356;29;20047;-81
2023/05/12 01:27:16;;;;;;;0.10;0.10;;;11.70;99.90;;;;;;4928770;29;20047;-81
2023/05/12 01:29:45;;;;;;;0.10;0.10;;;11.70;99.90;;;;;;4919366;29;20075;-81
2023/05/12 01:32:17;;;;;;;0.10;0.10;;;11.70;99.90;;;;;;4912205;29;20519;-81
2023/05/12 01:37:21;;;;;;;0.10;0.10;;;11.70;99.90;;;;;;5869701;23;20115;-81
2023/05/12 01:39:49;;;;;;;0.10;0.10;;;11.70;99.90;;;;;;4944186;28;20048;-81
2023/05/12 01:42:14;;;;;;;0.20;0.20;;;11.80;99.90;;;;;;4937776;28;20035;-80
2023/05/12 01:44:40;;;;;;;0.20;0.20;;;11.80;99.90;;;;;;4964111;28;20065;-81
2023/05/12 01:47:08;;;;;;;0.10;0.10;;;11.70;99.90;;;;;;4951573;29;20042;-81
2023/05/12 01:49:34;;;;;;;0.10;0.10;;;11.70;99.90;;;;;;4942101;28;20049;-81
2023/05/12 01:52:00;;;;;;;0.10;0.10;;;11.70;99.90;;;;;;4959560;28;20047;-81
2023/05/12 01:54:26;;;;;;;0.10;0.10;;;11.80;99.90;;;;;;4960245;28;20078;-81
2023/05/12 01:56:51;;;;;;;0.20;0.20;;;11.80;99.90;;;;;;4968411;28;20050;-81
2023/05/12 01:59:17;;;;;;;0.10;0.10;;;11.80;99.90;;;;;;4933451;29;20065;-81
2023/05/12 02:01:43;;;;;;;0.10;0.10;;;11.90;99.90;;;;;;4949608;28;20034;-81
2023/05/12 02:04:08;;;;;;;0.10;0.10;;;11.80;99.90;;;;;;4928691;29;20481;-82
2023/05/12 02:06:34;;;;;;;0.17;0.17;;;11.80;99.90;;;;;;4942734;28;20068;-81
2023/05/12 02:09:00;;;;;;;0.20;0.20;;;11.90;99.90;;;;;;4930480;29;20401;-81
2023/05/12 02:11:26;;;;;;;0.10;0.10;;;11.90;99.90;;;;;;4921095;29;20055;-81
2023/05/12 02:13:51;;;;;;;0.20;0.20;;;11.90;99.90;;;;;;4957341;28;20042;-81
2023/05/12 02:16:17;;;;;;;0.10;0.10;;;11.80;99.90;;;;;;4952546;29;20047;-81
2023/05/12 02:18:42;;;;;;;0.20;0.20;;;11.90;99.90;;;;;;4937134;29;20075;-81
2023/05/12 02:21:09;;;;;;;0.10;0.10;;;11.90;99.90;;;;;;4932944;28;20102;-81
2023/05/12 02:23:35;;;;;;;0.10;0.10;;;11.90;99.90;;;;;;4946958;28;20099;-81
2023/05/12 02:26:01;;;;;;;0.20;0.20;;;11.90;99.90;;;;;;4938317;28;20107;-81
2023/05/12 02:28:27;;;;;;;0.10;0.10;;;11.90;99.90;;;;;;4935689;29;20047;-81
2023/05/12 02:30:53;;;;;;;0.20;0.20;;;11.90;99.90;;;;;;4934269;29;20043;-81
2023/05/12 02:33:20;;;;;;;0.10;0.10;;;12.20;99.90;;;;;;4952720;29;20049;-81
2023/05/12 02:35:46;;;;;;;0.20;0.20;;;11.80;99.90;;;;;;4951747;29;20478;-81
2023/05/12 02:38:12;;;;;;;0.10;0.10;;;11.90;99.90;;;;;;4933470;29;20127;-81
2023/05/12 02:40:38;;;;;;;0.15;0.15;;;11.90;99.90;;;;;;4939281;29;20047;-81
2023/05/12 02:43:04;;;;;;;0.10;0.10;;;11.90;99.90;;;;;;4948810;29;20145;-81
2023/05/12 02:45:30;;;;;;;0.20;0.20;;;12.00;99.90;;;;;;4931898;29;20579;-81
2023/05/12 02:47:55;;;;;;;0.10;0.10;;;12.00;99.90;;;;;;4946031;29;20139;-81
2023/05/12 02:50:21;;;;;;;0.10;0.10;;;12.00;99.90;;;;;;4932971;29;20078;-80
2023/05/12 02:52:50;;;;;;;0.10;0.10;;;12.00;99.90;;;;;;4940329;29;20142;-81
2023/05/12 02:55:16;;;;;;;0.20;0.20;;;12.00;99.90;;;;;;4950564;29;20142;-81
2023/05/12 02:57:42;;;;;;;0.10;0.10;;;12.00;99.90;;;;;;4949021;29;20071;-81
2023/05/12 03:00:09;;;;;;;0.10;0.10;;;12.00;99.90;;;;;;4931277;29;20052;-81
2023/05/12 03:02:37;;;;;;;0.13;0.13;;;12.00;99.90;;;;;;4952022;29;20175;-81
2023/05/12 03:05:03;;;;;;;0.20;0.20;;;12.00;99.90;;;;;;4952666;29;20043;-81
2023/05/12 03:07:29;;;;;;;0.13;0.13;;;12.00;99.90;;;;;;4950501;29;20051;-81
2023/05/12 03:09:55;;;;;;;0.10;0.10;;;12.00;99.90;;;;;;4947852;29;20040;-81
2023/05/12 03:12:20;;;;;;;0.10;0.10;;;11.90;99.90;;;;;;4939059;29;20899;-81
2023/05/12 03:14:46;;;;;;;0.20;0.20;;;12.00;99.90;;;;;;4951013;29;20499;-80
2023/05/12 03:17:12;;;;;;;0.10;0.10;;;12.00;99.90;;;;;;4953667;29;20547;-81
2023/05/12 03:19:40;;;;;;;0.20;0.20;;;12.00;99.90;;;;;;4951047;29;20803;-80
2023/05/12 03:22:06;;;;;;;0.10;0.10;;;12.00;99.90;;;;;;4951039;29;20054;-81
2023/05/12 03:24:32;;;;;;;0.10;0.10;;;12.00;99.90;;;;;;4947775;28;20069;-80
2023/05/12 03:26:59;;;;;;;0.20;0.20;;;12.00;99.90;;;;;;4939468;28;20035;-80
2023/05/12 03:29:25;;;;;;;0.10;0.10;;;12.10;99.90;;;;;;4951277;28;20047;-80
2023/05/12 03:31:51;;;;;;;0.10;0.10;;;12.00;99.90;;;;;;4950021;28;20057;-80
2023/05/12 03:34:17;;;;;;;0.10;0.10;;;12.20;99.90;;;;;;4956872;28;20063;-80
2023/05/12 03:36:43;;;;;;;0.10;0.10;;;11.80;99.90;;;;;;4949043;29;20180;-81
2023/05/12 03:39:08;;;;;;;0.10;0.10;;;12.10;99.90;;;;;;4952160;29;20052;-80
2023/05/12 03:41:35;;;;;;;0.10;0.10;;;12.00;99.90;;;;;;4934681;29;20301;-80
2023/05/12 03:44:01;;;;;;;0.10;0.10;;;12.00;99.90;;;;;;4952690;28;20047;-80
2023/05/12 03:46:26;;;;;;;0.10;0.10;;;12.00;99.90;;;;;;4957978;28;20035;-81
2023/05/12 03:48:52;;;;;;;0.20;0.20;;;12.10;99.90;;;;;;4942579;29;20178;-80
2023/05/12 03:51:18;;;;;;;0.10;0.10;;;12.00;99.90;;;;;;4944171;28;20105;-80
2023/05/12 03:53:46;;;;;;;0.10;0.10;;;12.00;99.90;;;;;;4954383;28;20055;-81
2023/05/12 03:56:12;;;;;;;0.10;0.10;;;12.10;99.90;;;;;;4948796;28;20078;-80
2023/05/12 03:58:38;;;;;;;0.10;0.10;;;12.10;99.90;;;;;;4964979;28;20041;-80
2023/05/12 04:01:04;;;;;;;0.10;0.10;;;12.20;99.90;;;;;;4931823;29;20059;-80
2023/05/12 04:03:30;;;;;;;0.10;0.10;;;12.10;99.90;;;;;;4934517;29;20050;-80
2023/05/12 04:06:01;;;;;;;0.10;0.10;;;12.00;99.90;;;;;;4951744;29;20039;-80
2023/05/12 04:08:27;;;;;;;0.13;0.13;;;12.10;99.90;;;;;;4933956;29;20055;-80
2023/05/12 04:10:57;;;;;;;0.10;0.10;;;12.10;99.90;;;;;;4932429;29;20039;-80
2023/05/12 04:13:24;;;;;;;0.10;0.10;;;12.10;99.90;;;;;;4934605;29;20110;-80
2023/05/12 04:15:49;;;;;;;0.10;0.10;;;12.10;99.90;;;;;;4931994;29;20401;-80
2023/05/12 04:18:16;;;;;;;0.10;0.10;;;12.10;99.90;;;;;;4952208;29;20036;-80
2023/05/12 04:20:43;;;;;;;0.10;0.10;;;12.10;99.90;;;;;;4951796;29;20043;-81
2023/05/12 04:23:09;;;;;;;0.10;0.10;;;12.10;99.90;;;;;;4951333;29;20480;-81
2023/05/12 04:25:39;;;;;;;0.10;0.10;;;12.10;99.90;;;;;;4937296;29;20040;-81
2023/05/12 04:28:05;;;;;;;0.10;0.10;;;12.10;99.90;;;;;;4951835;28;20051;-81
2023/05/12 04:30:31;;;;;;;0.20;0.20;;;12.20;99.90;;;;;;4915923;29;20439;-81
2023/05/12 04:32:57;;;;;;;0.10;0.10;;;12.30;99.90;;;;;;4931811;29;20051;-81
2023/05/12 04:35:22;;;;;;;0.10;0.10;;;12.20;99.90;;;;;;4948502;28;20062;-82
2023/05/12 04:37:48;;;;;;;0.10;0.10;;;12.20;99.90;;;;;;4958484;28;20058;-81
2023/05/12 04:40:14;;;;;;;0.10;0.10;;;12.20;99.90;;;;;;4937733;28;20043;-81
2023/05/12 04:42:39;;;;;;;0.10;0.10;;;12.20;99.90;;;;;;4943649;28;20682;-81
2023/05/12 04:45:06;;;;;;;0.10;0.10;;;12.20;99.90;;;;;;4934806;29;20039;-81
2023/05/12 04:47:32;;;;;;;0.20;0.20;;;12.30;99.90;;;;;;4932593;29;20047;-81
2023/05/12 04:49:57;;;;;;;0.17;0.17;;;12.30;99.90;;;;;;4945685;29;20051;-81
2023/05/12 04:52:23;;;;;;;0.10;0.10;;;12.30;99.90;;;;;;4934860;29;20183;-80
2023/05/12 04:54:49;;;;;;;0.10;0.10;;;12.30;99.90;;;;;;4938511;29;20051;-81
2023/05/12 04:57:15;;;;;;;0.20;0.20;;;12.30;99.90;;;;;;4934913;29;20043;-81
2023/05/12 04:59:43;;;;;;;0.17;0.17;;;12.30;99.90;;;;;;4919878;29;20075;-81
2023/05/12 05:02:10;;;;;;;0.10;0.10;;;12.40;99.90;;;;;;4953537;28;20035;-81
2023/05/12 05:04:36;;;;;;;0.17;0.17;;;12.40;99.90;;;;;;4935998;29;20523;-81
2023/05/12 05:07:02;;;;;;;0.10;0.10;;;12.40;99.90;;;;;;4933738;29;20083;-81
2023/05/12 05:09:28;;;;;;;0.10;0.10;;;12.40;99.90;;;;;;4924538;29;20116;-81
2023/05/12 05:11:53;;;;;;;0.20;0.20;;;12.60;99.90;;;;;;4952451;28;20123;-81
2023/05/12 05:14:19;;;;;;;0.10;0.10;;;12.50;99.90;;;;;;4955310;28;20043;-81
2023/05/12 05:16:45;;;;;;;0.13;0.13;;;12.50;99.90;;;;;;4954021;29;20558;-81
2023/05/12 05:19:12;;;;;;;0.10;0.10;;;12.50;99.90;;;;;;4954105;29;20055;-81
2023/05/12 05:21:38;;;;;;;0.10;0.10;;;12.60;99.90;;;;;;4954538;29;20385;-81
2023/05/12 05:24:04;;;;;;;0.15;0.15;;;12.60;99.90;;;;;;4956346;28;20047;-81
2023/05/12 05:26:30;;;;;;;0.10;0.10;;;12.60;99.90;;;;;;4936604;29;20126;-81
2023/05/12 05:28:56;;;;;;;0.10;0.10;;;12.60;99.90;;;;;;4939938;29;20526;-81
2023/05/12 05:31:22;;;;;;;0.10;0.10;;;12.70;99.90;;;;;;4952600;29;20070;-81
2023/05/12 05:33:47;;;;;;;0.10;0.10;;;12.70;99.90;;;;;;4948674;29;20519;-81
2023/05/12 05:36:13;;;;;;;0.10;0.10;;;12.70;99.90;;;;;;4943827;29;20106;-81
2023/05/12 05:38:39;;;;;;;0.10;0.10;;;12.70;99.90;;;;;;4935605;29;20563;-82
2023/05/12 05:41:05;;;;;;;0.10;0.10;;;12.70;99.90;;;;;;4924727;29;20111;-81
2023/05/12 05:43:31;;;;;;;0.20;0.20;;;12.70;99.90;;;;;;4928346;28;20141;-81
2023/05/12 05:45:57;;;;;;;0.10;0.10;;;12.80;99.90;;;;;;4948309;29;20079;-81
2023/05/12 05:48:25;;;;;;;0.20;0.20;;;12.80;99.90;;;;;;4954783;28;20044;-81
2023/05/12 05:50:52;;;;;;;0.10;0.10;;;12.80;99.90;;;;;;4960772;28;20475;-81
2023/05/12 05:53:21;;;;;;;0.20;0.20;;;12.80;99.90;;;;;;4940228;28;20411;-81
2023/05/12 05:55:49;;;;;;;0.10;0.10;;;12.80;99.90;;;;;;4937700;28;20095;-81
2023/05/12 05:58:15;;;;;;;0.20;0.20;;;12.80;99.90;;;;;;4945243;28;20058;-81
2023/05/12 06:00:42;;;;;;;0.15;0.15;;;12.90;99.90;;;;;;4952920;29;20052;-81
2023/05/12 06:03:08;;;;;;;0.10;0.10;;;12.90;99.90;;;;;;4954322;29;20062;-81
2023/05/12 06:05:34;;;;;;;0.10;0.10;;;12.90;99.90;;;;;;4937614;29;20110;-81
2023/05/12 06:08:00;;;;;;;0.20;0.20;;;12.90;99.90;;;;;;4918423;29;20131;-81
2023/05/12 06:10:26;;;;;;;0.10;0.10;;;12.90;99.90;;;;;;4923312;29;20130;-81
2023/05/12 06:12:51;;;;;;;0.10;0.10;;;13.00;99.90;;;;;;4949773;28;20055;-82
2023/05/12 06:15:20;;;;;;;0.10;0.10;;;12.90;99.90;;;;;;4935024;29;20043;-80
2023/05/12 06:17:46;;;;;;;0.10;0.10;;;13.00;99.90;;;;;;4937253;29;20111;-80
2023/05/12 06:20:12;;;;;;;0.10;0.10;;;13.10;99.90;;;;;;4944576;23;20168;-80
2023/05/12 06:22:41;;;;;;;0.10;0.10;;;13.00;99.90;;;;;;4950448;29;20062;-80
2023/05/12 06:25:07;;;;;;;0.20;0.20;;;13.10;99.90;;;;;;5082324;23;20079;-80
2023/05/12 06:27:33;;;;;;;0.20;0.20;;;13.10;99.90;;;;;;4952682;28;20058;-83
2023/05/12 06:29:58;;;;;;;0.15;0.15;;;13.20;99.90;;;;;;4942021;28;20035;-84
2023/05/12 06:32:24;;;;;;;0.20;0.20;;;13.20;99.90;;;;;;4937026;28;20069;-84
2023/05/12 06:34:50;;;;;;;0.10;0.10;;;13.30;99.90;;;;;;4917606;29;20052;-84
2023/05/12 06:37:15;;;;;;;0.17;0.17;;;13.30;99.90;;;;;;4934615;29;20054;-85
2023/05/12 06:39:41;;;;;;;0.10;0.10;;;13.40;99.90;;;;;;4947751;28;20039;-84
2023/05/12 06:42:07;;;;;;;0.20;0.20;;;13.40;99.90;;;;;;4934969;29;20513;-84
2023/05/12 06:44:32;;;;;;;0.10;0.10;;;13.50;99.90;;;;;;4933221;29;20062;-85
2023/05/12 06:46:58;;;;;;;0.10;0.10;;;13.50;99.90;;;;;;4933498;29;20185;-85
2023/05/12 06:49:24;;;;;;;0.10;0.10;;;13.60;99.90;;;;;;4940046;28;20051;-86
2023/05/12 06:51:50;;;;;;;0.10;0.10;;;13.60;99.90;;;;;;4943359;29;20133;-85
2023/05/12 06:54:15;;;;;;;0.17;0.17;;;13.70;99.90;;;;;;4940877;28;20035;-82
2023/05/12 06:56:41;;;;;;;0.20;0.20;;;13.70;99.90;;;;;;4941419;28;20132;-83
2023/05/12 06:59:07;;;;;;;0.10;0.10;;;13.70;99.90;;;;;;4950231;28;20055;-82
2023/05/12 07:01:32;;;;;;;0.10;0.10;;;13.80;99.90;;;;;;4945562;28;20124;-83
2023/05/12 07:03:59;;;;;;;0.17;0.17;;;13.80;99.90;;;;;;4943903;28;20173;-83
2023/05/12 07:06:34;;;;;;;0.10;0.10;;;13.90;99.90;;;;;;4946149;28;20142;-83
2023/05/12 07:08:59;;;;;;;0.10;0.10;;;13.90;99.90;;;;;;4951110;28;20078;-83
2023/05/12 07:11:25;;;;;;;0.10;0.10;;;14.10;99.90;;;;;;4952194;28;20079;-85
2023/05/12 07:13:51;;;;;;;0.10;0.10;;;14.00;99.90;;;;;;4949553;28;20047;-82
2023/05/12 07:16:18;;;;;;;0.10;0.10;;;14.10;99.90;;;;;;4949616;28;20055;-82
2023/05/12 07:18:44;;;;;;;0.20;0.20;;;14.20;99.90;;;;;;4935342;29;20070;-82
2023/05/12 07:21:11;;;;;;;0.10;0.10;;;14.20;99.90;;;;;;4937174;29;20047;-82
2023/05/12 07:23:37;;;;;;;0.10;0.10;;;14.30;99.90;;;;;;4933809;29;20070;-82
2023/05/12 07:26:05;;;;;;;0.10;0.10;;;14.30;99.90;;;;;;4930655;29;20051;-81
2023/05/12 07:28:34;;;;;;;0.10;0.10;;;14.40;99.90;;;;;;4942166;29;20048;-82
2023/05/12 07:31:01;;;;;;;0.10;0.10;;;14.50;99.90;;;;;;4942306;29;20043;-81
2023/05/12 07:33:26;;;;;;;0.10;0.10;;;14.50;99.90;;;;;;4942878;29;20126;-81
2023/05/12 07:35:52;;;;;;;0.20;0.20;;;14.60;99.90;;;;;;4936448;28;20129;-79
2023/05/12 07:38:18;;;;;;;0.10;0.10;;;14.70;99.90;;;;;;4938035;29;20055;-82
2023/05/12 07:40:44;;;;;;;0.20;0.20;;;14.80;99.90;;;;;;4962878;23;20073;-82
2023/05/12 07:43:10;;;;;;;0.10;0.10;;;14.80;99.90;;;;;;4967269;28;20042;-81
2023/05/12 07:45:36;;;;;;;0.10;0.10;;;14.90;99.90;;;;;;4959117;28;20035;-81
2023/05/12 07:48:02;;;;;;;0.20;0.20;;;15.00;99.90;;;;;;4960757;28;20734;-81
2023/05/12 07:50:27;;;;;;;0.20;0.20;;;15.00;99.90;;;;;;4962019;28;20053;-81
2023/05/12 07:52:53;;;;;;;0.10;0.10;;;15.10;99.90;;;;;;4968223;28;20567;-81
2023/05/12 07:55:20;;;;;;;0.10;0.10;;;15.20;99.90;;;;;;4957291;28;20057;-80
2023/05/12 07:57:47;;;;;;;0.20;0.20;;;15.20;99.90;;;;;;4958654;28;20050;-80
2023/05/12 08:00:13;;;;;;;0.20;0.20;;;15.30;99.90;;;;;;4961574;28;20090;-81
2023/05/12 08:02:40;;;;;;;0.13;0.13;;;15.30;99.90;;;;;;4955025;28;20039;-82
2023/05/12 08:05:08;;;;;;;0.10;0.10;;;15.40;99.90;;;;;;4963296;28;20046;-81
2023/05/12 08:07:34;;;;;;;0.10;0.10;;;15.40;99.90;;;;;;4961304;28;20038;-81
2023/05/12 08:10:01;;;;;;;0.10;0.10;;;15.50;99.90;;;;;;4956235;28;20042;-84
2023/05/12 08:12:26;;;;;;;0.10;0.10;;;15.50;99.90;;;;;;4959569;28;20038;-82
2023/05/12 08:14:52;;;;;;;0.10;0.10;;;15.60;99.90;;;;;;4965153;28;20624;-81
2023/05/12 08:17:18;;;;;;;0.10;0.10;;;15.60;99.90;;;;;;4968073;28;20637;-81
2023/05/12 08:19:43;;;;;;;0.10;0.10;;;15.70;99.90;;;;;;4960848;28;20042;-83
2023/05/12 08:22:09;;;;;;;0.20;0.20;;;15.80;99.90;;;;;;4967381;28;20047;-80
2023/05/12 08:24:34;;;;;;;0.20;0.20;;;15.80;99.90;;;;;;4957836;28;20074;-82
2023/05/12 08:27:00;;;;;;;0.20;0.20;;;15.80;99.90;;;;;;4963307;28;20042;-82
2023/05/12 08:29:26;;;;;;;0.20;0.20;;;15.90;99.90;;;;;;4958349;28;20042;-82
2023/05/12 08:31:51;;;;;;;0.10;0.10;;;16.00;99.90;;;;;;4959579;28;20039;-82
2023/05/12 08:34:17;;;;;;;0.10;0.10;;;16.10;99.90;;;;;;4956366;28;20567;-82
2023/05/12 08:36:43;;;;;;;0.20;0.20;;;16.10;99.90;;;;;;4952714;28;20407;-82
2023/05/12 08:39:11;;;;;;;0.20;0.20;;;16.20;99.90;;;;;;4961127;28;20460;-82
2023/05/12 08:41:49;;;;;;;0.10;0.10;;;16.30;99.90;;;;;;4957473;28;20352;-81
2023/05/12 08:44:16;;;;;;;0.20;0.20;;;16.30;99.90;;;;;;4959319;28;20550;-81
2023/05/12 08:46:42;;;;;;;0.20;0.20;;;16.40;99.90;;;;;;4963053;28;20054;-82
2023/05/12 08:49:15;;;;;;;0.10;0.10;;;16.50;99.90;;;;;;4971271;28;20375;-82
2023/05/12 08:51:46;;;;;;;0.20;0.20;;;16.50;99.90;;;;;;4967535;28;20764;-81
2023/05/12 08:54:12;;;;;;;0.20;0.20;;;16.60;99.90;;;;;;4967497;28;20038;-80
2023/05/12 08:56:42;;;;;;;0.20;0.20;;;16.60;99.90;;;;;;4965714;28;20430;-84
2023/05/12 08:59:08;;;;;;;0.10;0.10;;;16.70;99.90;;;;;;4960003;28;20073;-83
2023/05/12 09:01:35;;;;;;;0.20;0.20;;;16.80;99.90;;;;;;4965227;28;20091;-83
2023/05/12 09:04:06;;;;;;;0.20;0.20;;;16.80;99.90;;;;;;4964018;28;20046;-85
2023/05/12 09:06:32;;;;;;;0.20;0.20;;;16.90;99.90;;;;;;4961469;28;20289;-85
2023/05/12 09:08:58;;;;;;;0.10;0.10;;;16.90;99.90;;;;;;4966374;28;20043;-84
2023/05/12 09:11:24;;;;;;;0.20;0.20;;;17.00;99.90;;;;;;4962282;28;20049;-84
2023/05/12 09:14:05;;;;;;;0.20;0.20;;;17.00;99.90;;;;;;4955216;28;20043;-84
2023/05/12 09:16:34;;;;;;;0.10;0.10;;;17.00;99.90;;;;;;4964543;28;20053;-84
2023/05/12 09:19:01;;;;;;;0.20;0.20;;;17.10;99.90;;;;;;4968164;28;20363;-84
2023/05/12 09:21:27;;;;;;;0.10;0.10;;;17.30;99.90;;;;;;4971116;28;20263;-85
2023/05/12 09:23:58;;;;;;;0.10;0.10;;;17.10;99.90;;;;;;4962258;28;20074;-84
2023/05/12 09:26:26;;;;;;;0.20;0.20;;;17.10;99.90;;;;;;4955110;28;20317;-83
2023/05/12 09:28:53;;;;;;;0.20;0.20;;;17.20;99.90;;;;;;4954510;28;20495;-83
2023/05/12 09:31:28;;;;;;;0.15;0.15;;;17.30;99.90;;;;;;4962708;28;20046;-86
2023/05/12 09:33:54;;;;;;;0.10;0.10;;;17.40;99.90;;;;;;4970385;28;20443;-83
2023/05/12 09:36:24;;;;;;;0.20;0.20;;;17.40;99.90;;;;;;4971966;28;20113;-82
2023/05/12 09:39:00;;;;;;;0.20;0.20;;;17.50;99.90;;;;;;4958606;28;20061;-82
2023/05/12 09:41:26;;;;;;;0.20;0.20;;;17.60;99.90;;;;;;4968282;28;20101;-83
2023/05/12 09:43:52;;;;;;;0.35;0.35;;;17.60;99.90;;;;;;4971074;28;20623;-82
2023/05/12 09:46:17;;;;;;;0.17;0.17;;;17.70;99.90;;;;;;4967569;28;20046;-83
2023/05/12 09:48:46;;;;;;;0.10;0.10;;;17.80;99.90;;;;;;4961697;28;20114;-84
2023/05/12 09:51:15;;;;;;;0.10;0.10;;;17.90;99.90;;;;;;4957437;28;20046;-82
2023/05/12 09:53:45;;;;;;;0.20;0.20;;;18.00;99.90;;;;;;4969158;28;20046;-84
2023/05/12 09:56:16;;;;;;;0.20;0.20;;;18.10;99.90;;;;;;4969596;28;20066;-81
2023/05/12 09:58:43;;;;;;;0.20;0.20;;;18.10;99.90;;;;;;4963809;28;20055;-83
2023/05/12 10:01:12;;;;;;;0.20;0.20;;;18.20;99.90;;;;;;4970080;28;20306;-84
2023/05/12 10:03:41;;;;;;;0.20;0.20;;;18.20;99.90;;;;;;4968599;28;20055;-83
2023/05/12 10:06:11;;;;;;;0.20;0.20;;;18.20;99.90;;;;;;4970652;28;20050;-83
2023/05/12 10:08:52;;;;;;;0.20;0.20;;;18.20;99.90;;;;;;4971573;28;20432;-83
2023/05/12 10:11:18;;;;;;;;;;;18.20;99.90;;;;;;4976452;28;20051;-83
2023/05/12 10:13:44;;;;;;;0.20;0.20;;;18.30;99.90;;;;;;4965787;28;19926;-83
2023/05/12 10:16:09;;;;;;;0.10;0.10;;;18.30;99.90;;;;;;4963179;28;20070;-83
2023/05/12 10:18:35;;;;;;;0.20;0.20;;;18.40;99.90;;;;;;4960647;28;20097;-83
2023/05/12 10:21:02;;;;;;;0.20;0.20;;;18.50;99.90;;;;;;4960393;28;20519;-83
2023/05/12 10:23:28;;;;;;;0.20;0.20;;;18.60;99.90;;;;;;4986579;28;20440;-83
2023/05/12 10:26:00;;;;;;;0.20;0.20;;;18.60;99.90;;;;;;4961099;28;20042;-82
2023/05/12 10:28:29;;;;;;;0.20;0.20;;;18.70;99.90;;;;;;4953017;29;20484;-83
2023/05/12 10:30:57;;;;;;;0.20;0.20;;;18.70;99.90;;;;;;4976472;28;20051;-84
2023/05/12 10:33:23;;;;;;;0.20;0.20;;;18.70;99.90;;;;;;4971480;28;20426;-85
2023/05/12 10:35:51;;;;;;;0.15;0.15;;;18.80;99.90;;;;;;4962667;28;20043;-84
2023/05/12 10:38:18;;;;;;;0.20;0.20;;;18.80;99.90;;;;;;4964333;28;20396;-83
2023/05/12 10:40:53;;;;;;;0.20;0.20;;;18.80;99.90;;;;;;4969083;28;20076;-83
2023/05/12 10:43:42;;;;;;;0.20;0.20;;;18.80;99.90;;;;;;4967627;28;20051;-85
2023/05/12 10:46:08;;;;;;;0.20;0.20;;;18.90;99.90;;;;;;4970615;28;20452;-83
2023/05/12 10:48:47;;;;;;;0.20;0.20;;;18.90;99.90;;;;;;4971321;28;20054;-85
2023/05/12 10:51:22;;;;;;;0.20;0.20;;;18.90;99.90;;;;;;4958097;28;20069;-83
2023/05/12 10:54:08;;;;;;;0.20;0.20;;;19.00;99.90;;;;;;4967196;28;20407;-82
2023/05/12 10:56:37;;;;;;;0.15;0.15;;;19.10;99.90;;;;;;4952041;28;20082;-85
2023/05/12 10:59:17;;;;;;;0.20;0.20;;;19.10;99.90;;;;;;4964093;28;20047;-84
2023/05/12 11:02:00;;;;;;;0.10;0.10;;;19.20;99.90;;;;;;4966303;28;20129;-85
2023/05/12 11:04:54;;;;;;;0.20;0.20;;;19.30;99.90;;;;;;4970345;28;20074;-85
2023/05/12 11:07:22;;;;;;;0.20;0.20;;;19.30;99.90;;;;;;4962342;28;20046;-84
2023/05/12 11:09:48;;;;;;;0.20;0.20;;;19.40;99.90;;;;;;4971371;28;20055;-86
2023/05/12 11:12:14;;;;;;;0.68;0.30;;;19.50;99.90;;;;;;4962181;28;20717;-83
2023/05/12 11:14:43;;;;;;;0.20;0.20;;;19.50;99.90;;;;;;4965782;28;20191;-81
2023/05/12 11:17:09;;;;;;;0.20;0.20;;;19.60;99.90;;;;;;4970593;28;20039;-82
2023/05/12 11:19:43;;;;;;;0.20;0.20;;;19.70;99.90;;;;;;4970260;28;20103;-84
2023/05/12 11:37:43;;;;;;;0.13;0.13;;;20.10;99.90;;;;;;4893526;23;20420;-81
2023/05/12 11:40:20;;;;;;;0.20;0.20;;;20.10;99.90;;;;;;4948845;29;20058;-81
2023/05/12 11:42:47;;;;;;;0.20;0.20;;;20.20;99.90;;;;;;4940362;28;20211;-82
2023/05/12 11:45:20;;;;;;;0.20;0.20;;;;;;;;;;4938127;29;20047;-81
2023/05/12 11:47:46;;;;;;;0.20;0.20;;;;;;;;;;4948950;29;20050;-82
2023/05/12 11:50:19;;;;;;;0.20;0.20;;;;;;;;;;4949888;29;20399;-82
2023/05/12 11:52:44;;;;;;;0.20;0.20;;;20.70;99.90;;;;;;4942153;29;20048;-81
2023/05/12 11:55:10;;;;;;;0.20;0.20;;;20.60;99.90;;;;;;4930477;29;20044;-82
2023/05/12 11:57:36;;;;;;;0.20;0.20;;;20.80;99.90;;;;;;4939422;29;20534;-81
2023/05/12 12:00:06;;;;;;;0.20;0.20;;;21.00;99.90;;;;;;4949226;29;20063;-81
2023/05/12 12:02:33;;;;;;;0.20;0.20;;;21.00;99.90;;;;;;4952135;29;20047;-81
2023/05/12 12:04:59;;;;;;;0.20;0.20;;;21.20;99.90;;;;;;4950632;29;20307;-83
2023/05/12 12:07:34;;;;;;;0.20;0.20;;;21.30;99.90;;;;;;4931492;29;20476;-81
2023/05/12 12:10:16;;;;;;;0.10;0.10;;;21.40;99.90;;;;;;4931663;29;20451;-81
2023/05/12 12:12:43;;;;;;;0.20;0.20;;;21.50;99.90;;;;;;4945286;29;20538;-81
2023/05/12 12:15:09;;;;;;;0.20;0.20;;;21.60;99.90;;;;;;4948968;29;20155;-82
2023/05/12 12:17:35;;;;;;;0.20;0.20;;;21.60;99.90;;;;;;4950742;29;20071;-82
2023/05/12 12:20:02;;;;;;;0.20;0.20;;;21.80;99.90;;;;;;4932648;29;20055;-82
2023/05/12 12:22:32;;;;;;;0.20;0.20;;;21.90;99.90;;;;;;4951345;29;20178;-82
2023/05/12 12:24:58;;;;;;;0.20;0.20;;;22.10;99.90;;;;;;4949384;29;20055;-82
2023/05/12 12:27:24;;;;;;;0.20;0.20;;;22.10;99.90;;;;;;4951049;29;20062;-82
2023/05/12 12:29:50;;;;;;;0.20;0.20;;;22.20;99.90;;;;;;4949671;29;20047;-82
2023/05/12 12:32:16;;;;;;;0.20;0.20;;;22.30;99.90;;;;;;4949810;29;20142;-82
2023/05/12 12:34:43;;;;;;;0.20;0.20;;;22.40;99.90;;;;;;4949588;29;20102;-81
2023/05/12 12:37:09;;;;;;;0.20;0.20;;;22.50;99.90;;;;;;4946180;28;20059;-83
2023/05/12 12:39:35;;;;;;;0.13;0.13;;;22.60;99.90;;;;;;4931325;29;20058;-81
2023/05/12 12:42:01;;;;;;;0.20;0.20;;;22.60;99.90;;;;;;4945923;29;20039;-82
2023/05/12 12:44:28;;;;;;;0.20;0.20;;;22.70;99.90;;;;;;4947884;29;20043;-80
2023/05/12 12:46:53;;;;;;;0.20;0.20;;;22.70;99.90;;;;;;4949503;29;20347;-81
2023/05/12 12:49:19;;;;;;;0.20;0.20;;;22.80;99.90;;;;;;4934238;28;20487;-80
2023/05/12 12:51:44;;;;;;;0.20;0.20;;;22.90;99.90;;;;;;4943458;28;20045;-80
2023/05/12 12:54:10;;;;;;;0.20;0.20;;;23.10;99.90;;;;;;4943651;28;20047;-81
2023/05/12 12:56:36;;;;;;;0.20;0.20;;;23.10;99.90;;;;;;4938318;28;20369;-84
2023/05/12 12:59:01;;;;;;;0.20;0.20;;;23.20;99.90;;;;;;4939358;28;20087;-83
2023/05/12 13:01:27;;;;;;;0.20;0.20;;;23.30;99.90;;;;;;4941662;28;20070;-84
2023/05/12 13:03:53;;;;;;;0.20;0.20;;;23.30;99.90;;;;;;4946843;29;20051;-84
2023/05/12 13:06:18;;;;;;;0.20;0.20;;;23.40;99.90;;;;;;4941257;28;20143;-84